Time;durP1;ratioP1;P1;durP2;ratioP2;P2;SDS_P1;SDS_P2;PMS_P1;PMS_P2;Temp;Humidity;BMP_temperature;BMP_pressure;BME280_temperature;BME280_humidity;BME280_pressure;Samples;Min_cycle;Max_cycle;Signal;HPM_P1;HPM_P2
2021/09/07 00:01:40;;;;;;;;;;;;;;;-144.99;92.45;52321.72;5045593;28;19964;-76
2021/09/07 00:04:08;;;;;;;;;;;;;;;-144.99;92.61;52329.88;5045455;28;19944;-75
2021/09/07 00:06:34;;;;;;;;;;;;;;;-144.99;92.75;52309.50;5045750;28;19951;-75
2021/09/07 00:09:01;;;;;;;;;;;;;;;-144.99;92.70;52293.19;5043958;28;20579;-75
2021/09/07 00:11:27;;;;;;;;;;;;;;;-144.99;92.69;52268.72;5046058;28;19968;-75
2021/09/07 00:13:53;;;;;;;;;;;;;;;-144.99;92.40;52289.13;5046911;28;19961;-75
2021/09/07 00:16:20;;;;;;;;;;;;;;;-144.99;92.93;52289.13;5044896;28;20525;-76
2021/09/07 00:18:46;;;;;;;;;;;;;;;-144.99;93.02;52268.72;5042976;28;19947;-74
2021/09/07 00:21:14;;;;;;;;;;;;;;;-144.99;92.88;52262.63;5043118;28;19929;-73
2021/09/07 00:23:40;;;;;;;;;;;;;;;-144.99;93.63;52285.03;5042823;28;19932;-73
2021/09/07 00:26:06;;;;;;;;;;;;;;;-144.99;93.97;52270.78;5048768;28;19990;-73
2021/09/07 00:28:33;;;;;;;;;;;;;;;-144.99;94.03;52289.13;5048496;28;19979;-73
2021/09/07 00:30:59;;;;;;;;;;;;;;;-144.99;94.13;52256.50;5050281;28;20310;-74
2021/09/07 00:33:31;;;;;;;;;;;;;;;-144.99;94.15;52280.97;5052865;28;19967;-73
2021/09/07 00:35:58;;;;;;;;;;;;;;;-144.99;94.50;52289.13;5051072;28;20322;-74
2021/09/07 00:38:25;;;;;;;;;;;;;;;-144.99;94.22;52325.81;5044479;28;19950;-73
2021/09/07 00:40:51;;;;;;;;;;;;;;;-144.99;94.45;52260.56;5044070;28;20204;-74
2021/09/07 00:43:18;;;;;;;;;;;;;;;-144.99;94.24;52266.69;5044808;28;19936;-74
2021/09/07 00:45:45;;;;;;;;;;;;;;;-144.99;94.30;52276.88;5045100;28;20095;-74
2021/09/07 00:48:11;;;;;;;;;;;;;;;-144.99;94.50;52305.41;5042564;28;20489;-74
2021/09/07 00:50:38;;;;;;;;;;;;;;;-144.99;94.69;52283.00;5043313;28;19955;-74
2021/09/07 00:53:05;;;;;;;;;;;;;;;-144.99;94.67;52297.25;5040021;28;19992;-74
2021/09/07 00:55:33;;;;;;;;;;;;;;;-144.99;94.78;52309.50;5044484;28;19964;-74
2021/09/07 00:58:00;;;;;;;;;;;;;;;-144.99;94.71;52317.66;5044836;28;19960;-74
2021/09/07 01:00:26;;;;;;;;;;;;;;;-144.99;94.98;52293.19;5044348;28;19993;-73
2021/09/07 01:02:52;;;;;;;;;;;;;;;-144.99;94.89;52280.97;5040631;28;19957;-74
2021/09/07 01:05:18;;;;;;;;;;;;;;;-144.99;95.03;52293.19;5043910;28;19925;-75
2021/09/07 01:07:46;;;;;;;;;;;;;;;-144.99;95.06;52309.50;5040105;28;19925;-75
2021/09/07 01:10:12;;;;;;;;;;;;;;;-144.99;94.98;52276.88;5046257;28;19972;-75
2021/09/07 01:12:40;;;;;;;;;;;;;;;-144.99;94.88;52305.41;5047747;28;20462;-76
2021/09/07 01:15:07;;;;;;;;;;;;;;;-144.99;95.08;52268.72;5049145;28;19955;-75
2021/09/07 01:17:34;;;;;;;;;;;;;;;-144.99;94.93;52283.00;5047254;28;19939;-74
2021/09/07 01:20:00;;;;;;;;;;;;;;;-144.99;94.90;52291.16;5038724;28;20414;-74
2021/09/07 01:22:26;;;;;;;;;;;;;;;-144.99;94.90;52305.41;5041700;28;19933;-74
2021/09/07 01:24:54;;;;;;;;;;;;;;;-144.99;94.87;52329.88;5044954;28;19969;-75
2021/09/07 01:27:20;;;;;;;;;;;;;;;-144.99;94.92;52301.34;5045367;28;19960;-75
2021/09/07 01:29:48;;;;;;;;;;;;;;;-144.99;94.76;52293.19;5044768;28;19955;-74
2021/09/07 01:32:15;;;;;;;;;;;;;;;-144.99;95.04;52289.13;5044764;28;20365;-75
2021/09/07 01:34:41;;;;;;;;;;;;;;;-144.99;95.20;52323.75;5044752;28;19959;-75
2021/09/07 01:37:08;;;;;;;;;;;;;;;-144.99;95.11;52264.66;5055546;28;19937;-74
2021/09/07 01:39:36;;;;;;;;;;;;;;;-144.99;95.27;52285.03;5064124;28;19913;-75
2021/09/07 01:42:04;;;;;;;;;;;;;;;-144.99;95.40;52303.38;5066902;28;19929;-74
2021/09/07 01:44:32;;;;;;;;;;;;;;;-144.99;95.59;52260.56;5064777;28;19962;-75
2021/09/07 01:46:58;;;;;;;;;;;;;;;-144.99;95.52;52338.03;5065029;28;20004;-75
2021/09/07 01:49:24;;;;;;;;;;;;;;;-144.99;95.61;52317.66;5064229;28;20010;-74
2021/09/07 01:51:51;;;;;;;;;;;;;;;-144.99;95.89;52272.81;5051821;28;19936;-74
2021/09/07 01:54:19;;;;;;;;;;;;;;;-144.99;96.14;52313.56;5045596;28;19944;-74
2021/09/07 01:56:45;;;;;;;;;;;;;;;-144.99;96.21;52268.72;5047543;28;20017;-75
2021/09/07 01:59:13;;;;;;;;;;;;;;;-144.99;96.09;52295.22;5061948;28;19970;-74
2021/09/07 02:01:40;;;;;;;;;;;;;;;-144.99;96.22;52323.75;5067183;28;20141;-75
2021/09/07 02:04:06;;;;;;;;;;;;;;;-144.99;96.22;52309.50;5070144;28;20060;-75
2021/09/07 02:06:33;;;;;;;;;;;;;;;-144.99;96.05;52276.88;5068736;28;19933;-74
2021/09/07 02:08:59;;;;;;;;;;;;;;;-144.99;95.79;52309.50;5069085;28;19942;-74
2021/09/07 02:11:25;;;;;;;;;;;;;;;-144.99;95.86;52317.66;5067583;28;19954;-74
2021/09/07 02:13:52;;;;;;;;;;;;;;;-144.99;95.65;52260.56;5052183;28;20000;-74
2021/09/07 02:16:19;;;;;;;;;;;;;;;-144.99;95.59;52309.50;5057207;28;19955;-74
2021/09/07 02:18:45;;;;;;;;;;;;;;;-144.99;95.91;52313.56;5072250;28;19917;-73
2021/09/07 02:21:12;;;;;;;;;;;;;;;-144.99;95.99;52329.88;5073527;28;19917;-74
2021/09/07 02:23:38;;;;;;;;;;;;;;;-144.99;96.14;52338.03;5064768;28;19936;-74
2021/09/07 02:26:04;;;;;;;;;;;;;;;-144.99;95.87;52325.81;5076634;28;19983;-74
2021/09/07 02:28:31;;;;;;;;;;;;;;;-144.99;95.76;52301.34;5076548;28;19943;-74
2021/09/07 02:30:57;;;;;;;;;;;;;;;-144.99;95.78;52262.63;5076253;28;19923;-74
2021/09/07 02:33:25;;;;;;;;;;;;;;;-144.99;95.46;52289.13;5060393;28;20020;-73
2021/09/07 02:35:51;;;;;;;;;;;;;;;-144.99;95.80;52285.03;5054415;28;19932;-73
2021/09/07 02:38:17;;;;;;;;;;;;;;;-144.99;95.90;52291.16;5053559;28;19936;-72
2021/09/07 02:40:43;;;;;;;;;;;;;;;-144.99;95.89;52311.53;5053246;28;19935;-73
2021/09/07 02:43:10;;;;;;;;;;;;;;;-144.99;95.96;52301.34;5053238;28;19973;-73
2021/09/07 02:45:36;;;;;;;;;;;;;;;-144.99;95.84;52331.91;5052900;28;20414;-72
2021/09/07 02:48:02;;;;;;;;;;;;;;;-144.99;96.08;52311.53;5053188;28;19941;-73
2021/09/07 02:50:30;;;;;;;;;;;;;;;-144.99;95.79;52301.34;5053089;28;20401;-73
2021/09/07 02:52:56;;;;;;;;;;;;;;;-144.99;95.72;52354.34;5056165;28;19986;-73
2021/09/07 02:55:23;;;;;;;;;;;;;;;-144.99;95.60;52293.19;5070273;28;19933;-75
2021/09/07 02:57:49;;;;;;;;;;;;;;;-144.99;95.48;52325.81;5070524;28;19924;-74
2021/09/07 03:00:15;;;;;;;;;;;;;;;-144.99;95.19;52305.41;5068688;28;19940;-75
2021/09/07 03:02:42;;;;;;;;;;;;;;;-144.99;95.56;52309.50;5067559;28;19928;-75
2021/09/07 03:05:08;;;;;;;;;;;;;;;-144.99;95.68;52309.50;5069675;28;19933;-75
2021/09/07 03:07:36;;;;;;;;;;;;;;;-144.99;95.46;52289.13;5066701;28;19995;-75
2021/09/07 03:10:03;;;;;;;;;;;;;;;-144.99;95.14;52301.34;5067866;28;19963;-74
2021/09/07 03:12:29;;;;;;;;;;;;;;;-144.99;94.98;52317.66;5069497;28;19971;-75
2021/09/07 03:14:55;;;;;;;;;;;;;;;-144.99;94.86;52311.53;5071477;28;19933;-75
2021/09/07 03:17:22;;;;;;;;;;;;;;;-144.99;94.38;52317.66;5071098;28;19963;-75
2021/09/07 03:19:48;;;;;;;;;;;;;;;-144.99;93.83;52313.56;5066613;28;19925;-75
2021/09/07 03:22:14;;;;;;;;;;;;;;;-144.99;94.39;52325.81;5069926;28;19928;-75
2021/09/07 03:24:42;;;;;;;;;;;;;;;-144.99;94.30;52329.88;5071509;28;19931;-75
2021/09/07 03:27:08;;;;;;;;;;;;;;;-144.99;94.36;52297.25;5071028;28;19913;-75
2021/09/07 03:29:34;;;;;;;;;;;;;;;-144.99;94.53;52323.75;5070650;28;20015;-75
2021/09/07 03:32:01;;;;;;;;;;;;;;;-144.99;94.87;52344.16;5071371;28;19932;-74
2021/09/07 03:34:27;;;;;;;;;;;;;;;-144.99;94.97;52276.88;5071342;28;19979;-74
2021/09/07 03:36:53;;;;;;;;;;;;;;;-144.99;94.97;52321.72;5068224;28;19940;-74
2021/09/07 03:39:20;;;;;;;;;;;;;;;-144.99;94.83;52352.28;5068379;28;19912;-75
2021/09/07 03:41:47;;;;;;;;;;;;;;;-144.99;94.85;52301.34;5062930;28;19943;-75
2021/09/07 03:44:14;;;;;;;;;;;;;;;-144.99;94.86;52321.72;5043253;28;19929;-74
2021/09/07 03:46:40;;;;;;;;;;;;;;;-144.99;94.91;52331.91;5043543;28;19968;-73
2021/09/07 03:49:06;;;;;;;;;;;;;;;-144.99;94.60;52352.28;5042762;28;19975;-75
2021/09/07 03:51:33;;;;;;;;;;;;;;;-144.99;94.72;52317.66;5042296;28;20321;-73
2021/09/07 03:53:59;;;;;;;;;;;;;;;-144.99;95.06;52317.66;5042737;28;19996;-74
2021/09/07 03:56:26;;;;;;;;;;;;;;;-144.99;95.13;52301.34;5043250;28;19975;-74
2021/09/07 03:58:54;;;;;;;;;;;;;;;-144.99;94.69;52338.03;5043283;28;19975;-74
2021/09/07 04:01:20;;;;;;;;;;;;;;;-144.99;94.39;52297.25;5042403;28;20488;-72
2021/09/07 04:03:46;;;;;;;;;;;;;;;-144.99;94.20;52338.03;5040326;28;19968;-72
2021/09/07 04:06:12;;;;;;;;;;;;;;;-144.99;94.04;52350.25;5037025;28;19974;-74
2021/09/07 04:08:39;;;;;;;;;;;;;;;-144.99;94.11;52311.53;5043088;28;19994;-73
2021/09/07 04:11:05;;;;;;;;;;;;;;;-144.99;94.29;52323.75;5042553;28;19969;-75
2021/09/07 04:13:31;;;;;;;;;;;;;;;-144.99;94.35;52323.75;5043423;28;19952;-74
2021/09/07 04:15:59;;;;;;;;;;;;;;;-144.99;94.41;52329.88;5043030;28;20455;-75
2021/09/07 04:18:25;;;;;;;;;;;;;;;-144.99;94.83;52342.09;5042956;28;19970;-75
2021/09/07 04:20:52;;;;;;;;;;;;;;;-144.99;94.93;52313.56;5041475;28;19977;-71
2021/09/07 04:23:18;;;;;;;;;;;;;;;-144.99;94.82;52346.19;5041446;28;19943;-74
2021/09/07 04:25:44;;;;;;;;;;;;;;;-144.99;94.94;52331.91;5043357;28;21371;-74
2021/09/07 04:28:10;;;;;;;;;;;;;;;-144.99;94.92;52362.50;5042710;28;19946;-73
2021/09/07 04:30:37;;;;;;;;;;;;;;;-144.99;95.18;52293.19;5041295;28;20488;-73
2021/09/07 04:33:04;;;;;;;;;;;;;;;-144.99;95.68;52356.38;5043110;28;19990;-74
2021/09/07 04:35:31;;;;;;;;;;;;;;;-144.99;95.51;52366.56;5044456;28;19969;-73
2021/09/07 04:37:57;;;;;;;;;;;;;;;-144.99;95.57;52333.94;5039394;28;19969;-74
2021/09/07 04:40:23;;;;;;;;;;;;;;;-144.99;95.93;52319.69;5042217;28;20005;-74
2021/09/07 04:42:49;;;;;;;;;;;;;;;-144.99;96.10;52352.28;5043159;28;21408;-74
2021/09/07 04:45:16;;;;;;;;;;;;;;;-144.99;96.04;52301.34;5042767;28;20031;-74
2021/09/07 04:47:42;;;;;;;;;;;;;;;-144.99;95.86;52325.81;5044579;28;19997;-74
2021/09/07 04:50:10;;;;;;;;;;;;;;;-144.99;95.68;52370.63;5041806;28;19973;-75
2021/09/07 04:52:36;;;;;;;;;;;;;;;-144.99;95.52;52338.03;5041472;28;20341;-74
2021/09/07 04:55:03;;;;;;;;;;;;;;;-144.99;95.44;52329.88;5038188;28;20018;-74
2021/09/07 04:57:29;;;;;;;;;;;;;;;-144.99;95.43;52329.88;5042832;28;19955;-74
2021/09/07 04:59:55;;;;;;;;;;;;;;;-144.99;95.04;52350.25;5040421;28;19993;-75
2021/09/07 05:02:22;;;;;;;;;;;;;;;-144.99;94.55;52360.44;5041224;28;19962;-74
2021/09/07 05:04:48;;;;;;;;;;;;;;;-144.99;94.18;52309.50;5041087;28;20306;-78
2021/09/07 05:07:18;;;;;;;;;;;;;;;-144.99;93.81;52321.72;5039109;28;19967;-77
2021/09/07 05:09:45;;;;;;;;;;;;;;;-144.99;93.85;52285.03;5041475;28;19967;-73
2021/09/07 05:12:11;;;;;;;;;;;;;;;-144.99;93.76;52342.09;3996600;28;10000731;-77
2021/09/07 05:14:38;;;;;;;;;;;;;;;-144.99;93.71;52331.91;5039698;28;20472;-76
2021/09/07 05:17:05;;;;;;;;;;;;;;;-144.99;93.36;52329.88;5043877;28;20188;-77
2021/09/07 05:19:31;;;;;;;;;;;;;;;-144.99;93.12;52317.66;5043717;28;20569;-76
2021/09/07 05:21:57;;;;;;;;;;;;;;;-144.99;93.09;52313.56;5042063;28;20217;-77
2021/09/07 05:24:25;;;;;;;;;;;;;;;-144.99;92.50;52325.81;5055460;28;19964;-77
2021/09/07 05:26:51;;;;;;;;;;;;;;;-144.99;92.33;52350.25;5061231;28;20378;-76
2021/09/07 05:29:17;;;;;;;;;;;;;;;-144.99;92.16;52362.50;5042575;28;19963;-75
2021/09/07 05:31:43;;;;;;;;;;;;;;;-144.99;92.26;52346.19;5041783;28;20419;-75
2021/09/07 05:34:10;;;;;;;;;;;;;;;-144.99;92.03;52301.34;5042820;28;19962;-74
2021/09/07 05:36:36;;;;;;;;;;;;;;;-144.99;91.81;52317.66;5040901;28;19947;-75
2021/09/07 05:39:02;;;;;;;;;;;;;;;-144.99;91.63;52293.19;5041386;28;19955;-74
2021/09/07 05:41:30;;;;;;;;;;;;;;;-144.99;91.73;52309.50;5042501;28;20422;-74
2021/09/07 05:43:56;;;;;;;;;;;;;;;-144.99;91.77;52293.19;5043344;28;19944;-73
2021/09/07 05:46:23;;;;;;;;;;;;;;;-144.99;91.80;52309.50;5045484;28;19949;-74
2021/09/07 05:48:49;;;;;;;;;;;;;;;-144.99;91.77;52297.25;5041305;28;19950;-73
2021/09/07 05:51:15;;;;;;;;;;;;;;;-144.99;91.53;52313.56;5042745;28;20148;-75
2021/09/07 05:53:42;;;;;;;;;;;;;;;-144.99;91.17;52266.69;5041305;28;20016;-74
2021/09/07 05:56:10;;;;;;;;;;;;;;;-144.99;90.88;52283.00;5046670;28;19944;-75
2021/09/07 05:58:38;;;;;;;;;;;;;;;-144.99;90.24;52270.78;5046282;28;20321;-74
2021/09/07 06:01:04;;;;;;;;;;;;;;;-144.99;89.70;52305.41;5045721;28;19931;-75
2021/09/07 06:03:30;;;;;;;;;;;;;;;-144.99;89.35;52256.50;5046566;28;19942;-75
2021/09/07 06:05:57;;;;;;;;;;;;;;;-144.99;89.36;52287.06;5038405;28;19943;-74
2021/09/07 06:08:23;;;;;;;;;;;;;;;-144.99;89.16;52268.72;5045840;28;19964;-73
2021/09/07 06:10:49;;;;;;;;;;;;;;;-144.99;88.86;52289.13;5045076;28;19970;-75
2021/09/07 06:13:16;;;;;;;;;;;;;;;-144.99;88.72;52301.34;5045766;28;20349;-75
2021/09/07 06:15:43;;;;;;;;;;;;;;;-144.99;88.37;52268.72;5045728;28;19955;-74
2021/09/07 06:18:10;;;;;;;;;;;;;;;-144.99;88.23;52287.06;5046245;28;19981;-75
2021/09/07 06:20:36;;;;;;;;;;;;;;;-144.99;87.89;52315.59;5045330;28;20002;-75
2021/09/07 06:23:02;;;;;;;;;;;;;;;-144.99;87.77;52289.13;5042659;28;19973;-75
2021/09/07 06:25:29;;;;;;;;;;;;;;;-144.99;87.73;52297.25;5046281;28;19985;-74
2021/09/07 06:27:55;;;;;;;;;;;;;;;-144.99;88.37;52268.72;5046156;28;20442;-72
2021/09/07 06:30:21;;;;;;;;;;;;;;;-144.99;88.55;52252.44;5045378;28;20049;-74
2021/09/07 06:32:49;;;;;;;;;;;;;;;-144.99;88.27;52268.72;5045496;28;20342;-74
2021/09/07 06:35:15;;;;;;;;;;;;;;;-144.99;88.16;52293.19;5044881;28;20007;-75
2021/09/07 06:37:42;;;;;;;;;;;;;;;-144.99;87.82;52272.81;5045886;28;19979;-74
2021/09/07 06:40:09;;;;;;;;;;;;;;;-144.99;87.46;52246.31;5046204;28;20001;-74
2021/09/07 06:42:36;;;;;;;;;;;;;;;-144.99;86.75;52276.88;5046527;28;20446;-74
2021/09/07 06:45:03;;;;;;;;;;;;;;;-144.99;87.23;52244.28;5046605;28;19984;-74
2021/09/07 06:47:29;;;;;;;;;;;;;;;-144.99;87.15;52252.44;5047881;28;20513;-75
2021/09/07 06:50:00;;;;;;;;;;;;;;;-144.99;87.02;52260.56;5045319;28;19996;-74
2021/09/07 06:52:26;;;;;;;;;;;;;;;-144.99;86.70;52240.19;5044690;28;19973;-74
2021/09/07 06:54:52;;;;;;;;;;;;;;;-144.99;86.12;52248.34;5041156;28;19994;-74
2021/09/07 06:57:19;;;;;;;;;;;;;;;-144.99;85.88;52252.44;5046747;28;20437;-73
2021/09/07 06:59:46;;;;;;;;;;;;;;;-144.99;85.36;52240.19;5045468;28;19996;-74
2021/09/07 07:02:12;;;;;;;;;;;;;;;-144.99;84.57;52244.28;5045690;28;20032;-74
2021/09/07 07:04:39;;;;;;;;;;;;;;;-144.99;83.89;52225.94;5046048;28;20489;-73
2021/09/07 07:07:06;;;;;;;;;;;;;;;-144.99;82.92;52223.88;5044700;28;19979;-75
2021/09/07 07:09:33;;;;;;;;;;;;;;;-144.99;82.28;52252.44;5045854;28;19996;-73
2021/09/07 07:11:59;;;;;;;;;;;;;;;-144.99;81.56;52227.97;5045352;28;19993;-74
2021/09/07 07:14:25;;;;;;;;;;;;;;;-144.99;80.74;52244.28;5046486;28;20003;-75
2021/09/07 07:16:51;;;;;;;;;;;;;;;-144.99;80.09;52227.97;5045302;28;19986;-73
2021/09/07 07:19:18;;;;;;;;;;;;;;;-144.99;79.24;52187.19;5044737;28;20006;-74
2021/09/07 07:21:44;;;;;;;;;;;;;;;-144.99;77.96;52236.13;5042719;28;20414;-73
2021/09/07 07:24:14;;;;;;;;;;;;;;;-144.99;77.55;52211.66;5041132;28;19983;-74
2021/09/07 07:26:40;;;;;;;;;;;;;;;-144.99;77.08;52193.31;5042063;28;20348;-74
2021/09/07 07:29:07;;;;;;;;;;;;;;;-144.99;76.27;52219.81;5044672;28;19987;-74
2021/09/07 07:31:33;;;;;;;;;;;;;;;-144.99;75.73;52232.03;5045030;28;20088;-72
2021/09/07 07:33:59;;;;;;;;;;;;;;;-144.99;75.19;52203.50;5046766;28;20003;-74
2021/09/07 07:36:26;;;;;;;;;;;;;;;-144.99;74.69;52205.53;5043919;28;19979;-75
2021/09/07 07:38:52;;;;;;;;;;;;;;;-144.99;73.78;52219.81;5044711;28;19990;-74
2021/09/07 07:41:20;;;;;;;;;;;;;;;-144.99;72.76;52183.13;5045725;28;20420;-73
2021/09/07 07:43:46;;;;;;;;;;;;;;;-144.99;72.03;52168.84;5046879;28;20331;-74
2021/09/07 07:46:13;;;;;;;;;;;;;;;-144.99;71.21;52183.13;5048190;28;19986;-74
2021/09/07 07:48:40;;;;;;;;;;;;;;;-144.99;69.46;52193.31;5045951;28;19959;-73
2021/09/07 07:51:07;;;;;;;;;;;;;;;-144.99;67.87;52179.06;5045249;28;20119;-73
2021/09/07 07:53:33;;;;;;;;;;;;;;;-144.99;66.83;52191.28;5036820;28;20413;-74
2021/09/07 07:55:59;;;;;;;;;;;;;;;-144.99;66.55;52187.19;5043151;28;20403;-74
2021/09/07 07:58:27;;;;;;;;;;;;;;;-144.99;66.23;52168.84;5044571;28;20010;-72
2021/09/07 08:00:53;;;;;;;;;;;;;;;-144.99;65.65;52203.50;5043902;28;20263;-73
2021/09/07 08:03:20;;;;;;;;;;;;;;;-144.99;64.65;52207.59;5045210;28;20050;-74
2021/09/07 08:05:46;;;;;;;;;;;;;;;-144.99;64.31;52195.34;5038442;28;19961;-74
2021/09/07 08:08:12;;;;;;;;;;;;;;;-144.99;63.60;52179.06;5043724;28;19957;-75
2021/09/07 08:10:39;;;;;;;;;;;;;;;-144.99;62.44;52187.19;5044675;28;19964;-74
2021/09/07 08:13:05;;;;;;;;;;;;;;;-144.99;61.69;52187.19;5044768;28;19947;-73
2021/09/07 08:15:33;;;;;;;;;;;;;;;-144.99;61.29;52183.13;5044977;28;19977;-74
2021/09/07 08:18:00;;;;;;;;;;;;;;;-144.99;60.79;52203.50;5038622;28;20323;-75
2021/09/07 08:20:26;;;;;;;;;;;;;;;-144.99;60.03;52172.94;5044485;28;20029;-74
2021/09/07 08:22:52;;;;;;;;;;;;;;;-144.99;58.55;52193.31;5042160;28;19964;-72
2021/09/07 08:25:19;;;;;;;;;;;;;;;-144.99;58.52;52174.97;5046533;28;19953;-75
2021/09/07 08:27:45;;;;;;;;;;;;;;;-144.99;58.09;52146.44;5055624;28;19948;-75
2021/09/07 08:30:12;;;;;;;;;;;;;;;-144.99;57.61;52158.66;5058366;28;19935;-75
2021/09/07 08:32:41;;;;;;;;;;;;;;;-144.99;56.79;52174.97;5044930;28;20424;-74
2021/09/07 08:35:07;;;;;;;;;;;;;;;-144.99;56.72;52191.28;5044656;28;20497;-74
2021/09/07 08:37:34;;;;;;;;;;;;;;;-144.99;56.10;52174.97;5042996;28;20146;-74
2021/09/07 08:40:00;;;;;;;;;;;;;;;-144.99;54.95;52142.38;5043758;28;20089;-75
2021/09/07 08:42:26;;;;;;;;;;;;;;;-144.99;55.28;52197.41;5044012;28;19954;-74
2021/09/07 08:44:53;;;;;;;;;;;;;;;-144.99;55.86;52170.91;5045217;28;19936;-74
2021/09/07 08:47:20;;;;;;;;;;;;;;;-144.99;55.62;52164.78;5046461;28;20264;-75
2021/09/07 08:49:48;;;;;;;;;;;;;;;-144.99;55.67;52160.72;5043607;28;19997;-75
2021/09/07 08:52:15;;;;;;;;;;;;;;;-144.99;55.28;52148.47;5042974;28;19978;-74
2021/09/07 08:54:42;;;;;;;;;;;;;;;-144.99;54.57;52121.97;5038089;28;20410;-75
2021/09/07 08:57:08;;;;;;;;;;;;;;;-144.99;53.88;52150.53;5044071;28;19942;-75
2021/09/07 08:59:35;;;;;;;;;;;;;;;-144.99;53.43;52158.66;5042682;28;19961;-74
2021/09/07 09:02:11;;;;;;;;;;;;;;;-144.99;53.42;52170.91;5043124;28;20494;-74
2021/09/07 09:04:37;;;;;;;;;;;;;;;-144.99;53.24;52183.13;5043732;28;19943;-75
2021/09/07 09:07:05;;;;;;;;;;;;;;;-144.99;52.46;52142.38;5043622;28;19962;-76
2021/09/07 09:09:35;;;;;;;;;;;;;;;-144.99;51.86;52130.13;5043229;28;20427;-75
2021/09/07 09:12:01;;;;;;;;;;;;;;;-144.99;52.03;52146.44;5044562;28;19951;-74
2021/09/07 09:14:37;;;;;;;;;;;;;;;-144.99;51.84;52138.28;5043684;28;19982;-74
2021/09/07 09:17:22;;;;;;;;;;;;;;;-144.99;51.23;52109.75;5039055;28;20029;-72
2021/09/07 09:19:49;;;;;;;;;;;;;;;-144.99;51.86;52154.59;5043682;28;19940;-74
2021/09/07 09:22:16;;;;;;;;;;;;;;;-144.99;51.35;52158.66;5040493;28;19982;-74
2021/09/07 09:24:43;;;;;;;;;;;;;;;-144.99;50.76;52126.06;5043069;28;19947;-71
2021/09/07 09:27:11;;;;;;;;;;;;;;;-144.99;50.14;52117.91;5044538;28;19963;-74
2021/09/07 09:29:37;;;;;;;;;;;;;;;-144.99;50.08;52113.84;5042602;28;20352;-76
2021/09/07 09:32:05;;;;;;;;;;;;;;;-144.99;49.71;52109.75;5043641;28;19929;-75
2021/09/07 09:34:32;;;;;;;;;;;;;;;-144.99;49.23;52093.44;5046212;28;20358;-74
2021/09/07 09:37:03;;;;;;;;;;;;;;;-144.99;48.11;52097.53;5043874;28;19928;-74
2021/09/07 09:39:44;;;;;;;;;;;;;;;-144.99;47.96;52121.97;5044767;28;19929;-77
2021/09/07 09:42:13;;;;;;;;;;;;;;;-144.99;47.52;52077.16;5040976;28;19929;-77
2021/09/07 09:44:39;;;;;;;;;;;;;;;-144.99;46.96;52066.97;5044794;28;19935;-76
2021/09/07 09:47:06;;;;;;;;;;;;;;;-144.99;46.52;52077.16;5046132;28;19932;-75
2021/09/07 09:49:33;;;;;;;;;;;;;;;-144.99;46.21;52093.44;5043853;28;19933;-75
2021/09/07 09:52:01;;;;;;;;;;;;;;;-144.99;46.91;52115.88;5043675;28;19937;-76
2021/09/07 09:54:29;;;;;;;;;;;;;;;-144.99;47.45;52073.06;5039930;28;19971;-73
2021/09/07 09:56:57;;;;;;;;;;;;;;;-144.99;46.92;52093.44;5044994;28;19944;-77
2021/09/07 09:59:26;;;;;;;;;;;;;;;-144.99;45.65;52111.78;5041645;28;19932;-75
2021/09/07 10:01:53;;;;;;;;;;;;;;;-144.99;45.44;52048.63;5045222;28;19986;-74
2021/09/07 10:04:20;;;;;;;;;;;;;;;-144.99;45.14;52105.69;5042869;28;20391;-75
2021/09/07 10:06:50;;;;;;;;;;;;;;;-144.99;45.65;52069.00;5038695;28;19928;-76
2021/09/07 10:09:17;;;;;;;;;;;;;;;-144.99;45.53;52101.59;5043501;28;19929;-76
2021/09/07 10:11:47;;;;;;;;;;;;;;;-144.99;45.64;52121.97;5042654;28;19937;-75
2021/09/07 10:14:17;;;;;;;;;;;;;;;-144.99;44.24;52085.31;5045088;28;19928;-75
2021/09/07 10:16:46;;;;;;;;;;;;;;;-144.99;44.15;52060.84;5044808;28;19933;-75
2021/09/07 10:19:39;;;;;;;;;;;;;;;-144.99;44.88;52066.97;5043559;28;20082;-75
2021/09/07 10:24:50;;;;;;;;;;;;;;;-144.99;44.77;52030.28;5043952;28;19973;-75
2021/09/07 10:27:17;;;;;;;;;;;;;;;-144.99;45.03;52042.50;5044345;28;20307;-74
2021/09/07 10:29:45;;;;;;;;;;;;;;;-144.99;45.00;52020.09;5043080;28;20454;-73
2021/09/07 10:32:22;;;;;;;;;;;;;;;-144.99;44.79;52011.94;5044962;28;19933;-75
2021/09/07 10:35:01;;;;;;;;;;;;;;;-144.99;44.48;52003.78;5040441;28;19956;-75
2021/09/07 10:37:28;;;;;;;;;;;;;;;-144.99;44.26;52048.63;5044631;28;20395;-76
2021/09/07 10:39:54;;;;;;;;;;;;;;;-144.99;43.82;52016.00;5046947;28;19964;-76
2021/09/07 10:42:35;;;;;;;;;;;;;;;-144.99;43.49;51987.47;5047932;28;19933;-75
2021/09/07 10:45:04;;;;;;;;;;;;;;;-144.99;42.87;51963.03;5046587;28;19925;-74
2021/09/07 10:47:40;;;;;;;;;;;;;;;-144.99;42.69;51971.16;5050683;28;19935;-76
2021/09/07 10:50:07;;;;;;;;;;;;;;;-144.99;42.48;51963.03;5046816;28;19925;-76
2021/09/07 10:52:34;;;;;;;;;;;;;;;-144.99;42.18;51987.47;5046460;28;19956;-75
2021/09/07 10:55:19;;;;;;;;;;;;;;;-144.99;42.02;51954.88;5043724;28;19924;-75
2021/09/07 10:57:49;;;;;;;;;;;;;;;-144.99;42.25;51954.88;5047988;28;19928;-77
2021/09/07 11:00:30;;;;;;;;;;;;;;;-144.99;42.32;51971.16;5048009;28;19929;-76
2021/09/07 11:02:58;;;;;;;;;;;;;;;-144.99;42.00;51995.63;5040270;28;19928;-75
2021/09/07 11:05:37;;;;;;;;;;;;;;;-144.99;42.30;51946.72;5040770;28;19929;-75
2021/09/07 11:08:04;;;;;;;;;;;;;;;-144.99;41.43;51930.41;5045672;28;20030;-75
2021/09/07 11:10:33;;;;;;;;;;;;;;;-144.99;41.00;51930.41;5046972;28;19929;-74
2021/09/07 11:13:01;;;;;;;;;;;;;;;-144.99;41.50;51946.72;5041058;28;20317;-75
2021/09/07 11:15:29;;;;;;;;;;;;;;;-144.99;40.98;51930.41;5049266;28;19925;-74
2021/09/07 11:17:58;;;;;;;;;;;;;;;-144.99;40.51;51897.81;5047628;28;20016;-75
2021/09/07 11:20:26;;;;;;;;;;;;;;;-144.99;39.72;51871.31;5046690;28;19982;-75
2021/09/07 11:22:53;;;;;;;;;;;;;;;-144.99;39.46;51861.13;5042864;28;19960;-76
2021/09/07 11:25:20;;;;;;;;;;;;;;;-144.99;39.51;51861.13;5092177;22;20364;-75
2021/09/07 11:27:50;;;;;;;;;;;;;;;-144.99;39.55;51903.91;5078442;28;19928;-75
2021/09/07 11:30:25;;;;;;;;;;;;;;;-144.99;39.21;51877.44;5082189;28;19954;-74
2021/09/07 11:32:54;;;;;;;;;;;;;;;-144.99;38.65;51873.34;5082322;28;19929;-75
2021/09/07 11:35:22;;;;;;;;;;;;;;;-144.99;38.41;51877.44;5074203;28;19939;-75
2021/09/07 11:37:48;;;;;;;;;;;;;;;-144.99;38.15;51848.91;5077734;28;19951;-75
2021/09/07 11:40:17;;;;;;;;;;;;;;;-144.99;38.07;51857.03;5066548;28;19935;-75
2021/09/07 11:42:43;;;;;;;;;;;;;;;-144.99;37.75;51834.63;5068194;28;19932;-76
2021/09/07 11:45:17;;;;;;;;;;;;;;;-144.99;37.45;51877.44;5067889;28;20302;-76
2021/09/07 11:47:43;;;;;;;;;;;;;;;-144.99;38.02;51873.34;5072068;28;19935;-76
2021/09/07 11:50:10;;;;;;;;;;;;;;;-144.99;37.20;51842.78;5066078;28;19958;-74
2021/09/07 11:52:37;;;;;;;;;;;;;;;-144.99;37.31;51828.50;5069627;28;19934;-74
2021/09/07 11:55:07;;;;;;;;;;;;;;;-144.99;36.86;51816.28;5071634;28;19928;-75
2021/09/07 11:57:44;;;;;;;;;;;;;;;-144.99;35.95;51824.44;5072364;28;19928;-77
2021/09/07 12:00:11;;;;;;;;;;;;;;;-144.99;35.94;51795.91;5067879;28;20000;-78
2021/09/07 12:02:37;;;;;;;;;;;;;;;-144.99;35.62;51789.78;5073873;28;20303;-75
2021/09/07 12:05:04;;;;;;;;;;;;;;;-144.99;35.31;51799.97;5062186;28;19925;-78
2021/09/07 12:07:31;;;;;;;;;;;;;;;-144.99;35.14;51775.53;5071673;28;20346;-76
2021/09/07 12:10:07;;;;;;;;;;;;;;;-144.99;35.03;51804.06;5074920;28;19931;-76
2021/09/07 12:12:35;;;;;;;;;;;;;;;-144.99;35.27;51820.38;5069321;28;20378;-75
2021/09/07 12:15:15;;;;;;;;;;;;;;;-144.99;36.00;51791.84;5077463;28;19940;-77
2021/09/07 12:17:42;;;;;;;;;;;;;;;-144.99;36.25;51832.59;5065273;28;19931;-74
2021/09/07 12:20:13;;;;;;;;;;;;;;;-144.99;36.09;51938.56;5075631;28;20011;-76
2021/09/07 12:22:39;;;;;;;;;;;;;;;-144.99;35.83;51897.81;5063396;28;20286;-78
2021/09/07 12:25:08;;;;;;;;;;;;;;;-144.99;35.99;51840.75;5079454;28;19932;-77
2021/09/07 12:27:40;;;;;;;;;;;;;;;-144.99;35.60;51812.22;5097158;28;19924;-76
2021/09/07 12:30:11;;;;;;;;;;;;;;;-144.99;35.13;51795.91;5077127;28;19934;-77